• Join FlightAware (Why Join?)
  • Login
  • US Flag 
08:36PM EDT


 

Airport Tracker/Info


-or-


 

Live Flight TrackerFlight Track Log ✈ EJA922 ✈ 07-Jul-2013 ✈ TIST / STT - KBNA

Flight Track Log - Related Links

Times and Time Zones

All times are in EDT time to prevent confusion due to time zone crossing. See the EJA922 flight status page for this flight to view local times or setup timezone preferences in your user account.

Time Position Orientation Groundspeed Altitude Reporting Facility
EDT Latitude Longitude Course Direction KTS MPH feet Rate Location/Type
08:05PM 18.3333 -64.9333 198° South 170 196 1,200  Level San Juan Center
08:06PM 18.2833 -64.9500 198° South 230 265 3,800 2,460 Climbing San Juan Center
08:07PM 18.2500 -65.0167 242° Southwest 270 311 6,200 2,280 Climbing San Juan Center
08:08PM 18.2500 -65.1000 270° West 310 357 8,500 2,400 Climbing San Juan Center
08:09PM 18.2833 -65.2000 289° West 310 357 11,100 1,980 Climbing San Juan Center
08:10PM 18.3000 -65.2833 282° West 340 391 12,500 1,320 Climbing San Juan Center
08:11PM 18.3333 -65.3833 289° West 380 437 13,800 1,620 Climbing San Juan Center
08:12PM 18.3833 -65.4833 298° West 380 437 15,800 1,740 Climbing San Juan Center
08:13PM 18.4667 -65.5667 317° Northwest 400 460 17,300 1,260 Climbing San Juan Center
08:14PM 18.5333 -65.6667 305° West 410 472 18,400 1,140 Climbing San Juan Center
08:15PM 18.6000 -65.7667 305° West 420 483 19,600 1,200 Climbing San Juan Center
08:16PM 18.6667 -65.8667 305° West 430 495 20,800 1,140 Climbing San Juan Center
08:17PM 18.7500 -65.9667 311° West 420 483 21,900 1,080 Climbing San Juan Center
08:18PM 18.8167 -66.0667 305° West 430 495 23,000 900 Climbing San Juan Center
08:19PM 18.8833 -66.1667 305° West 430 495 23,800 840 Climbing San Juan Center
08:20PM 18.9500 -66.2667 305° West 440 506 24,700 900 Climbing San Juan Center
08:21PM 19.0333 -66.3667 311° West 440 506 25,600 780 Climbing San Juan Center
08:22PM 19.1000 -66.4833 301° West 440 506 26,300 780 Climbing San Juan Center
08:23PM 19.1833 -66.5833 311° West 460 529 27,200 900 Climbing San Juan Center
08:24PM 19.2667 -66.7000 307° West 450 518 28,200 1,020 Climbing San Juan Center
08:25PM 19.3333 -66.8000 305° West 450 518 29,300 1,500 Climbing San Juan Center
08:26PM 19.4167 -66.9000 311° West 440 506 31,300 1,860 Climbing San Juan Center
08:27PM 19.4833 -67.0000 305° West 420 483 33,100 1,560 Climbing San Juan Center
08:28PM 19.5500 -67.1000 305° West 420 483 34,500 1,380 Climbing San Juan Center
08:29PM 19.6167 -67.2000 305° West 430 495 35,900 1,200 Climbing San Juan Center
08:30PM 19.6833 -67.3000 305° West 430 495 37,000 1,020 Climbing San Juan Center
08:31PM 19.7333 -67.3833 303° West 410 472 38,000 480 Climbing San Juan Center
08:32PM 19.8000 -67.5167 298° West 430 495 38,000  Level San Juan Center
08:33PM 19.8667 -67.6333 301° West 460 529 38,000 180 Level San Juan Center
08:34PM 19.9000 -67.7667 285° West 430 495 38,400 420 Climbing San Juan Center
08:36PM 19.7833 -67.9667 238° Southwest 470 541 39,200 360 Climbing San Juan Center
08:38PM 19.6553 -68.2372 243° Southwest 437 503 40,000 240 Climbing Miami Center
08:39PM 19.6267 -68.3619 256° West 438 504 40,000  Level Miami Center
08:40PM 19.6728 -68.4819 292° West 417 480 40,000  Level Miami Center
08:41PM 19.7514 -68.5894 308° West 428 493 40,000  Level Miami Center
08:42PM 19.8358 -68.6922 311° West 443 510 40,000  Level Miami Center
08:43PM 19.9306 -68.7944 315° West 464 534 40,000  Level Miami Center
08:44PM 20.0169 -68.8994 311° West 482 555 40,000  Level Miami Center
08:45PM 20.1056 -69.0047 312° West 487 560 40,000  Level Miami Center
08:46PM 20.1964 -69.1119 312° West 487 560 40,000  Level Miami Center
08:47PM 20.2869 -69.2172 313° West 492 566 40,000  Level Miami Center
08:48PM 20.3753 -69.3228 312° West 492 566 40,000  Level Miami Center
08:49PM 20.4658 -69.4281 313° West 492 566 40,000  Level Miami Center
08:50PM 20.5539 -69.5317 312° West 492 566 40,000  Level Miami Center
08:51PM 20.6422 -69.6378 312° West 487 560 40,000  Level Miami Center
08:52PM 20.7306 -69.7436 312° West 487 560 40,000  Level Miami Center
08:53PM 20.8186 -69.8478 312° West 487 560 40,000  Level Miami Center
08:54PM 20.9044 -69.9519 311° West 482 555 40,000  Level Miami Center
08:55PM 20.9925 -70.0561 312° West 482 555 40,000  Level Miami Center
08:56PM 21.0806 -70.1628 312° West 482 555 40,000  Level Miami Center
08:57PM 21.1706 -70.2672 313° West 482 555 40,000  Level Miami Center
08:58PM 21.2586 -70.3764 311° West 482 555 40,000  Level Miami Center
08:59PM 21.3483 -70.4833 312° West 482 555 40,000  Level Miami Center
09:00PM 21.4361 -70.5883 312° West 482 555 40,000  Level Miami Center
09:01PM 21.5239 -70.6956 311° West 482 555 40,000  Level Miami Center
09:02PM 21.6181 -70.8072 312° West 492 566 40,000  Level Miami Center
09:03PM 21.7078 -70.9147 312° West 492 566 40,000  Level Miami Center
09:04PM 21.7997 -71.0267 312° West 492 566 40,000  Level Miami Center
09:05PM 21.8894 -71.1367 311° West 492 566 40,000  Level Miami Center
09:06PM 21.9811 -71.2492 311° West 492 566 40,000  Level Miami Center
09:07PM 22.0728 -71.3594 312° West 498 573 40,000  Level Miami Center
09:08PM 22.1625 -71.4700 311° West 498 573 40,000 120 Level Miami Center
09:09PM 22.2519 -71.5806 311° West 493 567 40,300 360 Climbing Miami Center
09:10PM 22.3411 -71.6914 311° West 493 567 40,800 480 Climbing Miami Center
09:11PM 22.4306 -71.8003 312° West 493 567 41,300 480 Climbing Miami Center
09:12PM 22.5175 -71.9069 311° West 493 567 41,800 420 Climbing Miami Center
09:13PM 22.6067 -72.0203 310° West 493 567 42,200 300 Climbing Miami Center
09:14PM 22.6936 -72.1297 311° West 493 567 42,500 300 Climbing Miami Center
09:15PM 22.7825 -72.2367 312° West 493 567 42,800 240 Climbing Miami Center
09:16PM 22.8672 -72.3442 311° West 488 562 43,000 60 Climbing Miami Center
09:17PM 22.9561 -72.4583 310° West 488 562 43,000  Level Miami Center
09:18PM 23.0469 -72.5633 313° West 493 567 43,000  Level Miami Center
09:19PM 23.1336 -72.6756 310° West 493 567 43,000  Level Miami Center
09:20PM 23.2161 -72.7881 309° West 488 562 43,000  Level Miami Center
09:21PM 23.3172 -72.9003 314° West 493 567 43,000  Level Miami Center
09:22PM 23.4100 -73.0106 313° West 493 567 43,000  Level Miami Center
09:23PM 23.4964 -73.1258 309° West 493 567 43,000  Level Miami Center
09:24PM 23.5828 -73.2411 309° West 493 567 43,000  Level Miami Center
09:25PM 23.6753 -73.3517 312° West 493 567 43,000  Level Miami Center
09:26PM 23.7614 -73.4672 309° West 498 573 43,000  Level Miami Center
09:27PM 23.8539 -73.5783 312° West 493 567 43,000  Level Miami Center
09:28PM 23.9419 -73.6919 310° West 493 567 43,000  Level Miami Center
09:29PM 24.0319 -73.8081 310° West 493 567 43,000  Level Miami Center
09:30PM 24.1158 -73.9197 309° West 493 567 43,000  Level Miami Center
09:31PM 24.2058 -74.0339 311° West 498 573 43,000  Level Miami Center
09:32PM 24.3000 -74.1503 312° West 498 573 43,000  Level Miami Center
09:33PM 24.3875 -74.2669 309° West 492 566 43,000  Level Miami Center
09:34PM 24.4794 -74.3839 311° West 499 574 43,000  Level Miami Center
09:35PM 24.5692 -74.5008 310° West 506 582 43,000  Level Miami Center
09:36PM 24.6586 -74.6181 310° West 501 577 43,000  Level Miami Center
09:37PM 24.7503 -74.7353 311° West 501 577 43,000  Level Miami Center
09:38PM 24.8397 -74.8550 309° West 506 582 43,000  Level Miami Center
09:39PM 24.9333 -74.9703 312° West 500 575 43,000  Level Miami Center
09:40PM 25.0308 -75.0789 315° West 500 575 43,000  Level Miami Center
09:41PM 25.1261 -75.1878 314° West 500 575 43,000  Level Miami Center
09:42PM 25.2256 -75.2989 315° West 494 568 43,000  Level Miami Center
09:43PM 25.3206 -75.4081 314° West 494 568 43,000  Level Miami Center
09:44PM 25.4200 -75.5150 316° Northwest 493 567 43,000  Level Miami Center
09:45PM 25.5169 -75.6244 314° West 501 577 43,000  Level Miami Center
09:46PM 25.6161 -75.7386 314° West 501 577 43,000  Level Miami Center
09:47PM 25.7131 -75.8486 314° West 501 577 43,000  Level Miami Center
09:48PM 25.8078 -75.9586 314° West 501 577 43,000  Level Miami Center
09:49PM 25.9025 -76.0686 314° West 501 577 43,000  Level Miami Center
09:50PM 26.0033 -76.1836 314° West 501 577 43,000  Level Miami Center
09:51PM 26.0978 -76.2942 314° West 496 571 43,000  Level Miami Center
09:52PM 26.1944 -76.4047 314° West 501 577 43,000  Level Miami Center
09:53PM 26.2886 -76.5133 314° West 501 577 43,000  Level Miami Center
09:54PM 26.3850 -76.6267 314° West 501 577 43,000  Level Miami Center
09:55PM 26.4792 -76.7381 313° West 503 579 43,000  Level Miami Center
09:56PM 26.5753 -76.8494 314° West 498 573 43,000  Level Miami Center
09:57PM 26.6714 -76.9633 313° West 497 572 43,000  Level Miami Center
09:58PM 26.7633 -77.0681 315° West 497 572 43,000  Level Miami Center
09:59PM 26.8592 -77.1825 313° West 497 572 43,000  Level Miami Center
10:00PM 26.9550 -77.3014 312° West 499 574 43,000  Level Miami Center
10:01PM 27.0464 -77.4069 314° West 499 574 43,000  Level Miami Center
10:02PM 27.1317 -77.5075 314° West 492 566 43,000  Level Miami Center
10:03PM 27.2272 -77.6181 314° West 487 560 43,000  Level Miami Center
10:04PM 27.3311 -77.7169 320° Northwest 492 566 43,000  Level Miami Center
10:05PM 27.4392 -77.8114 322° Northwest 485 558 43,000  Level Miami Center
10:06PM 27.5450 -77.9058 322° Northwest 490 564 43,000  Level Miami Center
10:07PM 27.6508 -78.0006 322° Northwest 490 564 43,000  Level Miami Center
10:08PM 27.7525 -78.0978 320° Northwest 490 564 43,000  Level Miami Center
10:09PM 27.8622 -78.1906 323° Northwest 495 570 43,000  Level Miami Center
10:10PM 27.9678 -78.2883 321° Northwest 495 570 43,000  Level Miami Center
10:11PM 28.0733 -78.3836 321° Northwest 489 563 43,000  Level Miami Center
10:12PM 28.1892 -78.4914 321° Northwest 494 568 43,000  Level Miami Center
10:13PM 28.2903 -78.5847 321° Northwest 494 568 43,000  Level Miami Center
10:14PM 28.3975 -78.6856 320° Northwest 494 568 43,000 -60 Level Miami Center
10:15PM 28.4986 -78.7794 321° Northwest 494 568 42,900  Descending Miami Center
10:16PM 28.6078 -78.8806 321° Northwest 494 568 43,000  Climbing Miami Center
10:17PM 28.7086 -78.9769 320° Northwest 494 568 43,000  Level Miami Center
10:18PM 28.8178 -79.0761 321° Northwest 494 568 43,000 180 Level Miami Center
10:19PM 28.9206 -79.1731 320° Northwest 494 568 43,400 420 Climbing Miami Center
10:20PM 29.0253 -79.2703 321° Northwest 494 568 43,900 480 Climbing Miami Center
10:22PM 29.1731 -79.4064 321° Northwest 471 542 44,700 420 Climbing Jacksonville Center
10:23PM 29.2758 -79.5050 320° Northwest 463 533 45,000 120 Climbing Jacksonville Center
10:24PM 29.3744 -79.5969 321° Northwest 463 533 45,000  Level Jacksonville Center
10:25PM 29.4814 -79.6983 320° Northwest 470 541 45,000  Level Jacksonville Center
10:26PM 29.5817 -79.7931 321° Northwest 475 547 45,000  Level Jacksonville Center
10:27PM 29.6972 -79.9064 320° Northwest 486 559 45,000  Level Jacksonville Center
10:28PM 29.7994 -80.0039 320° Northwest 480 552 45,000  Level Jacksonville Center
10:29PM 29.8997 -80.0989 321° Northwest 486 559 45,000  Level Jacksonville Center
10:30PM 29.9981 -80.1992 319° Northwest 481 554 45,000  Level Jacksonville Center
10:31PM 30.1022 -80.2972 321° Northwest 475 547 45,000  Level Jacksonville Center
10:32PM 30.2025 -80.3956 320° Northwest 475 547 45,000  Level Jacksonville Center
10:33PM 30.3067 -80.4939 321° Northwest 469 540 45,000  Level Jacksonville Center
10:34PM 30.4067 -80.5925 320° Northwest 469 540 45,000  Level Jacksonville Center
10:35PM 30.5000 -80.6817 321° Northwest 474 545 45,000  Level Jacksonville Center
10:36PM 30.5997 -80.7783 320° Northwest 474 545 45,000  Level Jacksonville Center
10:37PM 30.6972 -80.8753 319° Northwest 469 540 45,000  Level Jacksonville Center
10:38PM 30.7969 -80.9722 320° Northwest 464 534 45,000  Level Jacksonville Center
10:39PM 30.8967 -81.0697 320° Northwest 464 534 45,000  Level Jacksonville Center
10:40PM 30.9961 -81.1669 320° Northwest 464 534 45,000  Level Jacksonville Center
10:41PM 31.0933 -81.2647 319° Northwest 464 534 45,000  Level Jacksonville Center
10:42PM 31.1928 -81.3650 319° Northwest 464 534 45,000  Level Jacksonville Center
10:43PM 31.2919 -81.4631 320° Northwest 464 534 45,000  Level Jacksonville Center
10:44PM 31.4036 -81.5539 325° Northwest 450 518 45,000  Level Jacksonville Center
10:45PM 31.5108 -81.6083 337° Northwest 450 518 45,000  Level Jacksonville Center
10:46PM 31.6428 -81.6675 339° North 459 528 45,000  Level Jacksonville Center
10:48PM 31.9011 -81.7783 340° North 459 528 45,000  Level Atlanta Center
10:49PM 32.0192 -81.8317 339° North 464 534 45,000  Level Atlanta Center
10:50PM 32.1411 -81.8875 339° North 459 528 45,000  Level Atlanta Center
10:51PM 32.2608 -81.9411 339° North 459 528 45,000  Level Atlanta Center
10:52PM 32.3850 -81.9997 338° Northwest 459 528 45,000  Level Atlanta Center
10:53PM 32.5092 -82.0536 340° North 459 528 45,000 120 Level Atlanta Center
10:54PM 32.6311 -82.1100 339° North 464 534 45,300 360 Climbing Atlanta Center
10:55PM 32.7492 -82.1792 334° Northwest 464 534 45,800 480 Climbing Atlanta Center
10:56PM 32.8525 -82.2683 324° Northwest 464 534 46,300 480 Climbing Atlanta Center
10:57PM 32.9542 -82.3556 324° Northwest 464 534 46,800 300 Climbing Atlanta Center
10:58PM 33.0492 -82.4528 319° Northwest 453 521 47,000 60 Climbing Atlanta Center
10:59PM 33.1403 -82.5503 318° Northwest 443 510 47,000  Level Atlanta Center
11:00PM 33.2292 -82.6581 315° West 443 510 47,000  Level Atlanta Center
11:01PM 33.3056 -82.7786 307° West 449 517 47,000  Level Atlanta Center
11:02PM 33.3819 -82.8994 307° West 461 531 47,000  Level Atlanta Center
11:03PM 33.4581 -83.0203 307° West 456 525 47,000  Level Atlanta Center
11:04PM 33.5342 -83.1417 307° West 456 525 47,000  Level Atlanta Center
11:05PM 33.5997 -83.2508 306° West 456 525 47,000  Level Atlanta Center
11:06PM 33.6778 -83.3747 307° West 456 525 47,000  Level Atlanta Center
11:07PM 33.7514 -83.4992 305° West 456 525 47,000  Level Atlanta Center
11:08PM 33.8269 -83.6211 307° West 462 532 47,000  Level Atlanta Center
11:09PM 33.9003 -83.7436 306° West 457 526 47,000  Level Atlanta Center
11:10PM 33.9758 -83.8683 306° West 457 526 47,000  Level Atlanta Center
11:11PM 34.0489 -83.9911 306° West 457 526 47,000 -240 Level Atlanta Center
11:12PM 34.1261 -84.1167 307° West 457 526 46,600 -540 Descending Atlanta Center
11:13PM 34.2031 -84.2447 306° West 462 532 46,000 -600 Descending Atlanta Center
11:14PM 34.2800 -84.3756 305° West 475 547 45,500 -600 Descending Atlanta Center
11:15PM 34.3589 -84.5069 306° West 480 552 44,900 -600 Descending Atlanta Center
11:16PM 34.4336 -84.6381 305° West 475 547 44,300 -600 Descending Atlanta Center
11:17PM 34.5164 -84.7800 305° West 470 541 43,800 -660 Descending Atlanta Center
11:18PM 34.5928 -84.9067 306° West 475 547 43,000 -900 Descending Atlanta Center
11:19PM 34.6628 -85.0186 307° West 464 534 42,100 -1,020 Descending Atlanta Center
11:20PM 34.7597 -85.1461 313° West 464 534 41,000 -600 Descending Atlanta Center
11:21PM 34.8567 -85.2614 316° Northwest 469 540 40,900 -1,860 Descending Atlanta Center
11:23PM 35.1106 -85.5064 322° Northwest 486 559 34,700 -2,700 Descending Memphis Center
11:24PM 35.2231 -85.6067 324° Northwest 491 565 31,600 -3,060 Descending Memphis Center
11:25PM 35.3331 -85.7072 323° Northwest 491 565 28,600 -3,000 Descending Memphis Center
11:26PM 35.4369 -85.8033 323° Northwest 485 558 25,600 -3,000 Descending Memphis Center
11:27PM 35.5364 -85.9000 322° Northwest 474 545 22,600 -3,420 Descending Memphis Center
11:28PM 35.6322 -86.0172 315° West 448 516 18,900 -3,480 Descending Memphis Center
11:29PM 35.7067 -86.1183 312° West 431 496 15,700 -3,120 Descending Memphis Center
11:30PM 35.7744 -86.2094 313° West 380 437 12,700 -2,400 Descending Memphis Center
11:31PM 35.8397 -86.2958 313° West 352 405 11,000 -900 Descending Memphis Center
11:32PM 35.9006 -86.3747 314° West 329 379 11,000 -540 Level Memphis Center
11:33PM 35.9508 -86.4417 313° West 313 360 10,000 -1,380 Descending Memphis Center
11:34PM 36.0053 -86.5133 313° West 293 337 8,300 -1,740 Descending Memphis Center
11:35PM 36.0592 -86.5750 317° Northwest 278 320 6,600 -1,200 Descending Memphis Center
11:36PM 36.1253 -86.5539 14° North 229 264 5,900 -1,200 Descending Memphis Center
11:37PM 36.1892 -86.5278 18° North 234 269 4,300 -1,680 Descending Memphis Center
11:38PM 36.2400 -86.5564 336° Northwest 205 236 2,600 -1,200 Descending Memphis Center
11:39PM 36.2314 -86.6211 261° West 125 144 2,000 -480 Descending Memphis Center
11:40PM 36.1842 -86.6386 197° South 136 157 1,700 -600 Descending Memphis Center
11:41PM 36.1469 -86.6531 197° South 141 162 900 -840 Descending Memphis Center
11:43PM 36.1245 -86.6782 349° North  Level Estimated
11:50PM 36.1245 -86.6782 219° Southwest  Level Estimated
11:51PM 36.1245 -86.6782 219° Southwest  Level Estimated
11:52PM 36.1245 -86.6782 219° Southwest  Level Estimated
11:53PM 36.1245 -86.6782 219° Southwest  Level Estimated
11:54PM 36.1245 -86.6782 219° Southwest  Level Estimated
11:55PM 36.1245 -86.6782 219° Southwest  Level Estimated
11:56PM 36.1245 -86.6782 219° Southwest  Level Estimated
11:57PM 36.1245 -86.6782 219° Southwest  Level Estimated
11:58PM 36.1245 -86.6782 219° Southwest  Level Estimated